Time;durP1;ratioP1;P1;durP2;ratioP2;P2;SDS_P1;SDS_P2;PMS_P1;PMS_P2;Temp;Humidity;BMP_temperature;BMP_pressure;BME280_temperature;BME280_humidity;BME280_pressure;Samples;Min_cycle;Max_cycle;Signal;HPM_P1;HPM_P2
2022/09/28 13:42:01;;;;;;;0.35;0.10;;;18.30;53.50;21.00;92281.00;;;;10490940;27;45305;-59
2022/09/28 13:47:43;;;;;;;0.32;0.10;;;18.40;53.20;21.20;92279.00;;;;10484255;28;45212;-59
2022/09/28 13:53:15;;;;;;;0.15;0.08;;;18.80;52.30;21.40;92277.00;;;;10489450;28;45161;-61
2022/09/28 13:58:43;;;;;;;0.60;0.17;;;19.10;51.70;21.50;92284.00;;;;10490377;28;45233;-61
2022/09/28 14:04:18;;;;;;;0.50;0.20;;;19.30;50.90;21.50;92283.00;;;;10503426;28;45741;-62
2022/09/28 14:09:46;;;;;;;0.43;0.10;;;19.40;50.60;21.60;92292.00;;;;10503253;28;45190;-61
2022/09/28 14:15:45;;;;;;;0.43;0.20;;;19.50;50.50;21.60;92282.00;;;;10485926;28;45237;-61
2022/09/28 14:22:05;;;;;;;0.70;0.25;;;19.50;50.40;21.50;92259.00;;;;10496006;27;45489;-62
2022/09/28 14:28:00;;;;;;;0.17;0.10;;;19.40;50.00;21.60;92277.00;;;;10395955;27;45297;-62
2022/09/28 14:33:29;;;;;;;0.55;0.20;;;19.40;49.70;21.60;92263.00;;;;10493203;28;45197;-61
2022/09/28 14:44:30;;;;;;;0.20;0.20;;;19.50;49.60;21.70;92288.00;;;;10491871;28;45239;-62
2022/09/28 14:50:02;;;;;;;0.60;0.25;;;19.50;49.40;21.70;92285.00;;;;10465481;28;45802;-62
2022/09/28 14:55:31;;;;;;;3.42;1.20;;;19.50;48.60;21.70;92262.00;;;;10467001;28;45102;-62
2022/09/28 15:01:00;;;;;;;6.32;2.20;;;19.50;48.60;21.70;92285.00;;;;10451861;28;45346;-63
2022/09/28 15:06:25;;;;;;;5.97;2.20;;;19.50;48.10;21.70;92283.00;;;;10459367;28;45228;-62
2022/09/28 15:11:46;;;;;;;6.47;2.20;;;19.50;47.80;21.70;92287.00;;;;10463184;28;45178;-64
2022/09/28 15:17:12;;;;;;;7.15;2.00;;;19.50;47.20;21.70;92276.00;;;;10463230;28;45746;-61
2022/09/28 15:22:34;;;;;;;6.97;2.08;;;19.60;48.00;21.70;92275.00;;;;10470030;28;45791;-62
2022/09/28 15:27:58;;;;;;;4.80;1.73;;;19.60;48.10;21.80;92273.00;;;;10463547;28;45453;-61
2022/09/28 15:39:20;;;;;;;3.40;1.30;;;19.70;48.20;21.80;92273.00;;;;10420522;28;45350;-60
2022/09/28 15:44:44;;;;;;;2.65;1.35;;;19.70;47.90;21.80;92281.00;;;;10454127;28;45256;-61
2022/09/28 15:50:08;;;;;;;2.70;1.40;;;19.70;48.20;21.80;92277.00;;;;10453306;28;45929;-61
2022/09/28 15:55:32;;;;;;;2.45;1.30;;;19.70;48.40;21.80;92291.00;;;;10453896;28;45336;-68
2022/09/28 16:01:28;;;;;;;3.25;1.50;;;19.70;47.90;21.80;92277.00;;;;10452133;28;45235;-60
2022/09/28 16:07:16;;;;;;;2.80;1.38;;;19.70;47.30;21.90;92298.00;;;;10450988;28;46181;-61
2022/09/28 16:12:48;;;;;;;3.47;1.27;;;19.80;47.40;21.90;92308.00;;;;10454467;28;45241;-59
2022/09/28 16:18:19;;;;;;;2.28;1.20;;;19.80;47.30;21.90;92318.00;;;;10449295;28;45621;-59
2022/09/28 16:23:40;;;;;;;3.20;1.13;;;19.80;47.20;21.90;92318.00;;;;10457347;28;45576;-63
2022/09/28 16:29:09;;;;;;;4.03;1.30;;;19.80;47.30;21.90;92308.00;;;;10452730;28;45450;-63
2022/09/28 16:34:29;;;;;;;3.15;1.23;;;19.80;47.00;21.90;92328.00;;;;10464145;28;45233;-62
2022/09/28 16:39:50;;;;;;;2.25;0.90;;;19.80;47.10;22.00;92320.00;;;;10453882;28;45659;-61
2022/09/28 16:45:20;;;;;;;3.60;1.30;;;19.80;47.00;22.00;92344.00;;;;10456991;28;45806;-61
2022/09/28 16:50:41;;;;;;;3.90;1.50;;;19.80;47.30;22.00;92350.00;;;;10451987;28;46074;-61
2022/09/28 16:56:02;;;;;;;3.78;1.58;;;19.90;46.80;22.00;92360.00;;;;10458135;28;45251;-63
2022/09/28 17:01:24;;;;;;;2.90;1.50;;;19.90;47.30;21.90;92353.00;;;;10444149;28;45212;-62
2022/09/28 17:06:45;;;;;;;2.40;1.25;;;19.80;47.00;21.90;92362.00;;;;10458838;28;45241;-61
2022/09/28 17:12:12;;;;;;;2.80;1.20;;;19.80;47.20;22.00;92374.00;;;;10471153;28;45211;-62
2022/09/28 17:17:37;;;;;;;3.47;1.40;;;19.80;47.10;22.00;92364.00;;;;10469890;28;45236;-61
2022/09/28 17:22:57;;;;;;;1.90;1.10;;;19.70;47.10;22.00;92382.00;;;;10469162;28;45413;-61
2022/09/28 17:28:22;;;;;;;2.58;1.15;;;19.70;47.10;21.90;92384.00;;;;10450117;28;45741;-61
2022/09/28 17:33:44;;;;;;;1.92;1.10;;;19.70;47.10;21.90;92393.00;;;;10440463;28;45213;-60
2022/09/28 17:39:06;;;;;;;2.63;1.20;;;19.70;47.00;21.90;92395.00;;;;10474979;28;45463;-66
2022/09/28 17:44:27;;;;;;;2.03;0.95;;;19.70;47.00;21.90;92407.00;;;;10458048;28;45492;-63
2022/09/28 17:49:50;;;;;;;1.98;1.02;;;19.70;47.00;21.90;92396.00;;;;10457046;28;45143;-63
2022/09/28 17:55:10;;;;;;;2.05;0.90;;;19.70;47.00;21.90;92403.00;;;;10445736;28;45173;-62
2022/09/28 18:00:32;;;;;;;2.05;0.90;;;19.70;47.00;21.90;92398.00;;;;10442327;28;45239;-62
2022/09/28 18:06:06;;;;;;;1.77;0.90;;;19.70;46.90;21.90;92409.00;;;;10448518;28;45726;-62
2022/09/28 18:11:27;;;;;;;1.08;0.73;;;19.70;46.80;21.90;92409.00;;;;10427751;28;45786;-62
2022/09/28 18:16:48;;;;;;;1.73;0.70;;;19.70;46.90;21.90;92410.00;;;;10426177;28;45184;-62
2022/09/28 18:22:11;;;;;;;1.30;0.80;;;19.60;46.90;21.90;92417.00;;;;10438978;28;45807;-62
2022/09/28 18:27:33;;;;;;;1.85;0.82;;;19.70;46.80;21.90;92415.00;;;;10459817;28;45479;-61
2022/09/28 18:32:53;;;;;;;1.40;0.70;;;19.60;46.90;21.90;92421.00;;;;10449126;28;45472;-61
2022/09/28 18:38:15;;;;;;;1.30;0.73;;;19.70;46.80;21.90;92432.00;;;;10462229;28;45686;-62
2022/09/28 18:43:36;;;;;;;1.50;0.70;;;19.70;46.80;21.90;92439.00;;;;10457787;28;45154;-62
2022/09/28 18:48:56;;;;;;;1.40;0.65;;;19.60;46.70;21.90;92444.00;;;;10459154;28;45155;-61
2022/09/28 18:54:18;;;;;;;1.58;0.70;;;19.60;46.70;21.90;92445.00;;;;10434506;28;45509;-62
2022/09/28 18:59:39;;;;;;;1.92;0.65;;;19.70;46.80;21.90;92460.00;;;;10457445;28;45447;-62
2022/09/28 19:05:00;;;;;;;1.58;0.63;;;19.70;46.70;21.90;92469.00;;;;10475666;28;45589;-62
2022/09/28 19:10:22;;;;;;;1.83;0.68;;;19.60;46.80;21.90;92468.00;;;;10457262;28;45119;-62
2022/09/28 19:15:44;;;;;;;1.73;0.70;;;19.70;46.80;21.90;92460.00;;;;10431999;28;45173;-62
2022/09/28 19:21:07;;;;;;;1.65;0.80;;;19.60;46.60;21.90;92466.00;;;;10431062;28;45733;-62
2022/09/28 19:26:31;;;;;;;1.30;0.70;;;19.70;46.70;21.90;92466.00;;;;10465799;28;45824;-62
2022/09/28 19:31:52;;;;;;;1.10;0.60;;;19.60;46.70;21.90;92468.00;;;;10453546;28;45273;-62
2022/09/28 19:37:13;;;;;;;1.20;0.70;;;19.70;46.70;21.90;92471.00;;;;10460247;28;45200;-61
2022/09/28 19:42:35;;;;;;;0.93;0.60;;;19.70;46.70;21.90;92468.00;;;;10472365;28;45257;-62
2022/09/28 19:47:57;;;;;;;0.73;0.50;;;19.70;46.50;21.90;92474.00;;;;10473924;28;45407;-62
2022/09/28 19:53:18;;;;;;;1.23;0.80;;;19.60;46.50;21.90;92466.00;;;;10463289;28;45208;-61
2022/09/28 19:58:39;;;;;;;1.02;0.63;;;19.60;46.40;21.90;92467.00;;;;10442549;28;45847;-62
2022/09/28 20:04:00;;;;;;;1.50;0.60;;;19.60;46.30;21.90;92461.00;;;;10454471;28;45226;-61
2022/09/28 20:09:21;;;;;;;1.33;0.60;;;19.70;46.50;21.90;92465.00;;;;10431323;28;45439;-61
2022/09/28 20:14:43;;;;;;;1.17;0.50;;;19.70;46.50;21.80;92463.00;;;;10445336;28;45519;-60
2022/09/28 20:20:04;;;;;;;1.15;0.50;;;19.60;46.30;21.80;92464.00;;;;10472222;28;45268;-62
2022/09/28 20:25:25;;;;;;;1.08;0.60;;;19.60;46.30;21.80;92471.00;;;;10469046;28;45243;-62
2022/09/28 20:30:47;;;;;;;0.90;0.60;;;19.60;46.30;21.80;92466.00;;;;10463150;28;45165;-62
2022/09/28 20:36:10;;;;;;;1.48;0.50;;;19.50;46.10;21.80;92452.00;;;;10466994;28;45175;-62
2022/09/28 20:41:33;;;;;;;1.00;0.50;;;19.50;46.20;21.70;92462.00;;;;10463907;28;45204;-66
2022/09/28 20:46:56;;;;;;;1.23;0.68;;;19.50;46.20;21.70;92471.00;;;;10437917;28;45663;-62
2022/09/28 20:52:16;;;;;;;1.00;0.50;;;19.40;46.10;21.70;92444.00;;;;10463433;28;45160;-63
2022/09/28 20:57:36;;;;;;;0.60;0.40;;;19.40;46.30;21.60;92461.00;;;;10456632;28;45372;-62
2022/09/28 21:02:58;;;;;;;1.10;0.57;;;19.40;46.20;21.60;92446.00;;;;10477647;28;44900;-66
2022/09/28 21:08:21;;;;;;;3.80;0.50;;;19.30;46.20;21.60;92452.00;;;;10463060;28;45122;-62
2022/09/28 21:13:41;;;;;;;0.60;0.40;;;19.30;46.10;21.60;92452.00;;;;10454950;28;45203;-62
2022/09/28 21:19:04;;;;;;;0.70;0.40;;;19.30;46.20;21.50;92442.00;;;;10462462;28;45274;-63
2022/09/28 21:24:26;;;;;;;0.60;0.40;;;19.30;46.20;21.50;92444.00;;;;10462694;28;45237;-61
2022/09/28 21:29:46;;;;;;;1.23;0.60;;;19.30;46.30;21.50;92456.00;;;;10468604;28;45504;-61
2022/09/28 21:35:09;;;;;;;0.77;0.40;;;19.30;46.20;21.50;92450.00;;;;10439800;28;45886;-62
2022/09/28 21:40:30;;;;;;;0.93;0.30;;;19.20;47.00;21.50;92440.00;;;;10457245;28;45778;-61
2022/09/28 21:45:50;;;;;;;0.73;0.40;;;19.20;46.30;21.50;92434.00;;;;10470893;28;45478;-61
2022/09/28 21:51:14;;;;;;;0.52;0.40;;;19.20;46.30;21.50;92442.00;;;;10471156;28;45222;-61
2022/09/28 21:56:35;;;;;;;0.80;0.30;;;19.20;46.30;21.40;92441.00;;;;10470771;28;45177;-61
2022/09/28 22:01:55;;;;;;;0.47;0.30;;;19.10;46.30;21.40;92434.00;;;;10474724;28;45149;-61
2022/09/28 22:07:17;;;;;;;0.93;0.40;;;19.10;46.30;21.40;92425.00;;;;10478325;28;45236;-61
2022/09/28 22:12:38;;;;;;;0.57;0.50;;;19.10;46.30;21.40;92428.00;;;;10464654;28;45136;-61
2022/09/28 22:17:59;;;;;;;0.90;0.40;;;19.10;46.20;21.40;92429.00;;;;10477650;28;45477;-61
2022/09/28 22:23:21;;;;;;;1.33;0.50;;;19.10;46.20;21.40;92429.00;;;;10477113;28;45239;-61
2022/09/28 22:28:46;;;;;;;0.55;0.35;;;19.10;46.30;21.40;92421.00;;;;10468934;28;45492;-62
2022/09/28 22:34:08;;;;;;;0.45;0.40;;;19.10;46.30;21.40;92426.00;;;;10448095;28;45219;-61
2022/09/28 22:39:32;;;;;;;0.95;0.25;;;19.10;46.30;21.40;92422.00;;;;10477015;28;45892;-62
2022/09/28 22:44:53;;;;;;;0.50;0.40;;;19.10;46.30;21.40;92426.00;;;;10473269;28;45226;-61
2022/09/28 22:50:13;;;;;;;0.73;0.35;;;19.10;46.30;21.40;92431.00;;;;10433389;28;45275;-61
2022/09/28 22:55:35;;;;;;;0.35;0.30;;;19.10;46.30;21.40;92428.00;;;;10463063;28;45970;-62
2022/09/28 23:00:56;;;;;;;0.65;0.50;;;19.10;46.30;21.30;92432.00;;;;10474356;28;45704;-61
2022/09/28 23:06:19;;;;;;;0.47;0.40;;;19.10;46.30;21.30;92421.00;;;;10468181;28;45142;-61
2022/09/28 23:11:41;;;;;;;0.45;0.40;;;19.00;46.20;21.30;92427.00;;;;10473429;28;45149;-62
2022/09/28 23:17:02;;;;;;;1.00;0.50;;;19.00;46.20;21.30;92417.00;;;;10473908;28;45215;-61
2022/09/28 23:22:23;;;;;;;0.40;0.30;;;19.00;46.20;21.30;92404.00;;;;10473072;28;45193;-61
2022/09/28 23:27:46;;;;;;;0.20;0.20;;;19.00;46.20;21.30;92397.00;;;;10469334;28;45214;-61
2022/09/28 23:33:07;;;;;;;0.50;0.30;;;19.00;46.10;21.30;92408.00;;;;10474001;28;45496;-61
2022/09/28 23:38:27;;;;;;;0.40;0.40;;;19.00;46.10;21.30;92388.00;;;;10472032;28;45754;-62
2022/09/28 23:43:49;;;;;;;0.90;0.20;;;19.00;46.20;21.30;92392.00;;;;10473799;28;45254;-62
2022/09/28 23:49:10;;;;;;;0.90;0.32;;;19.00;46.30;21.30;92390.00;;;;10472917;28;45178;-62
2022/09/28 23:54:30;;;;;;;0.20;0.20;;;19.00;46.10;21.30;92394.00;;;;10472868;28;45888;-61
2022/09/28 23:59:52;;;;;;;0.55;0.30;;;19.00;46.10;21.30;92388.00;;;;10472130;28;45121;-61
